KTYR/TYR METAR and TAF weather

Enter ICAO airport designator
Station Type Date Time Source
KTYR METAR 2021/09/24 05:53 UTC NOAA

KTYR 240553Z AUTO 00000KT 10SM CLR 16/09 A3005 RMK AO2 SLP171 T01610094 10272 20161 402940111 58001 $


Station Type Date Time Source
KTYR Decoded METAR 2021/09/24 05:53 UTC NOAA

TYLER POUNDS FIELDS, TX, United States (KTYR) 32-21N 095-24W 165M
Sep 24, 2021 - 01:53 AM EDT / 2021.09.24 0553 UTC
Wind: Calm:0
Visibility: 10 mile(s):0
Sky conditions: clear
Temperature: 61.0 F (16.1 C)
Dew Point: 48.9 F (9.4 C)
Relative Humidity: 64%
Pressure (altimeter): 30.05 in. Hg (1017 hPa)
Pressure tendency: 0.00 inches (0.1 hPa) lower than three hours ago
ob: KTYR 240553Z AUTO 00000KT 10SM CLR 16/09 A3005 RMK AO2 SLP171 T01610094 10272 20161 402940111 58001
cycle: 6

Station Type Date Time Source
KTYR TAF 2021/09/24 06:30 UTC NOAA

TAF KTYR 240527Z 2406/2506 VRB03KT P6SM FEW250
FM240900 16005KT P6SM SCT250
FM241500 19007KT P6SM SCT250
FM250100 16004KT P6SM SKC

Example: see airport list